Estación Meteorológica Peña el Pijo (Robertgarden) [ 02/03/23 02:43:31 CET ]

Fecha Hora Presion(HPa) Temp (°C) Humedad % Rocio (°C) Viento ( m/s) Direccion Lluvia 1Hora(mm) Lluvia 24H(mm) LLuvia Total(mm)
2010-Oct-17 01:01:12 1006.600 8.6 86 6.4         169.90
2010-Oct-17 02:01:14 1006.800 8.6 88 6.7         169.90
2010-Oct-17 03:08:03 1006.400 8.1 89 6.4         169.90
2010-Oct-17 04:01:13 1006.400 8.8 91 7.5         169.90
2010-Oct-17 05:01:16 1006.100 7.8 91 6.5         169.90
2010-Oct-17 06:01:13 1006.300 8.1 92 6.9         169.90
2010-Oct-17 07:01:12 1006.300 8.3 92 7.1         169.90
2010-Oct-17 08:01:13 1006.300 7.2 92 6.0         169.90
2010-Oct-17 09:01:12 1006.500 7.1 92 5.9         169.90
2010-Oct-17 10:01:12 1007.100 10.9 94 9.9         169.90
2010-Oct-17 11:01:13 1007.600 13.6 77 9.6         169.90
2010-Oct-17 12:01:14 1007.600 15.3 66 9.0         169.90
2010-Oct-17 13:01:11 1008.200 14.5 59 6.6         169.90
2010-Oct-17 14:01:14 1008.100 17.3 50 6.8         169.90
2010-Oct-17 15:01:16 1007.600 18.6 42 5.4         169.90
2010-Oct-17 16:01:13 1007.500 17.6 39 3.4         169.90
2010-Oct-17 17:01:14 1007.800 17.6 37 2.6         169.90
2010-Oct-17 18:01:15 1008.300 15.2 37 0.5         169.90
2010-Oct-17 19:01:12 1009.200 12.4 41 -0.5         169.90
2010-Oct-17 20:01:12 1010.000 9.3 51 -0.3         169.90
2010-Oct-17 21:01:14 1010.100 6.4 64 0.1         169.90
2010-Oct-17 22:01:12 1010.800 4.8 70 -0.2         169.90
2010-Oct-17 23:01:16 1011.200 3.8 76 -0.1         169.90

Temperatura Máxima:18°    Temperatura Mínima:
Presión Máxima:1011.200 Hpa    Presión Mínima:1006.100 Hpa


Volver